This is the latest recevied weather packets stored in our database for station/object SR5MRF. If no packets are shown the sender has not sent any weather packets the latest 1 day(s).
| Time | Temp. | Humidity | Pressure | Rain* | Wind** | Luminosity | Snow |
|---|---|---|---|---|---|---|---|
| 1836274715 | 13.89° C | 90% | 1020.7 hPa | 0 mm | 0 m/s | - | - |
| 1836274385 | 13.89° C | 90% | 1020.8 hPa | 0 mm | 0 m/s | - | - |
| 1836274296 | 13.89° C | 90% | 1020.7 hPa | 0 mm | 0 m/s | - | - |
| 1836274146 | 13.89° C | 90% | 1020.7 hPa | 0 mm | 0 m/s | - | - |
| 1836273876 | 13.89° C | 90% | 1021 hPa | 0 mm | 0 m/s | - | - |
| 1778019100 | 17.78° C | 63% | 1003.7 hPa | 0 mm | 0 m/s | - | - |
| 1778018921 | 17.78° C | 64% | 1003.8 hPa | 0 mm | 0 m/s | - | - |
| 1778018680 | 18.33° C | 63% | 1003.7 hPa | 0 mm | 0 m/s | - | - |
| 1778018260 | 18.33° C | 62% | 1003.8 hPa | 0 mm | 0 m/s | - | - |
| 1778017840 | 18.33° C | 61% | 1003.7 hPa | 0 mm | 0 m/s | - | - |
| 1778017721 | 18.33° C | 61% | 1003.6 hPa | 0 mm | 0 m/s | - | - |
| 1778017420 | 18.89° C | 60% | 1003.7 hPa | 0 mm | 0 m/s | - | - |
| 1778017121 | 18.89° C | 59% | 1003.9 hPa | 0 mm | 0 m/s | - | - |
| 1778017000 | 18.89° C | 58% | 1003.8 hPa | 0 mm | 0 m/s | - | - |
| 1778016580 | 18.89° C | 57% | 1003.8 hPa | 0 mm | 0 m/s | - | - |
| 1778016521 | 18.89° C | 57% | 1003.8 hPa | 0 mm | 0 m/s | - | - |
| 1778016160 | 19.44° C | 57% | 1003.7 hPa | 0 mm | 0 m/s | - | - |
| 1778015921 | 19.44° C | 55% | 1003.7 hPa | 0 mm | 0 m/s | - | - |
| 1778015740 | 19.44° C | 52% | 1003.7 hPa | 0 mm | 0 m/s | - | - |
| 1778015320 | 19.44° C | 52% | 1003.7 hPa | 0 mm | 0 m/s | - | - |
| 1778014900 | 19.44° C | 48% | 1003.6 hPa | 0 mm | 0 m/s | - | - |
| 1778014721 | 20° C | 46% | 1003.7 hPa | 0 mm | 0 m/s | - | - |
| 1778014480 | 20° C | 44% | 1003.6 hPa | 0 mm | 0 m/s | - | - |
| 1778014121 | 20° C | 41% | 1003.6 hPa | 0 mm | 0 m/s | - | - |
| 1778014060 | 20° C | 41% | 1003.5 hPa | 0 mm | 0 m/s | - | - |
* Rain latest hour (hover to see other rain measurements)
** Current wind speed in m/s (hover to see current wind gust speed)